createdAt,value
2019-04-22T00:00:57.670Z,2.50
2019-04-22T00:03:52.686Z,2.40
2019-04-22T00:07:03.107Z,2.60
2019-04-22T00:10:02.357Z,2.63
2019-04-22T00:12:53.043Z,2.40
2019-04-22T00:15:37.071Z,2.93
2019-04-22T00:18:54.259Z,2.33
2019-04-22T00:24:30.679Z,2.23
2019-04-22T00:27:35.640Z,2.40
2019-04-22T00:30:16.446Z,2.50
2019-04-22T00:33:18.676Z,2.50
2019-04-22T00:36:08.871Z,2.60
2019-04-22T00:39:18.422Z,2.40
2019-04-22T00:42:07.810Z,2.33
2019-04-22T00:45:00.829Z,2.50
2019-04-22T00:47:52.535Z,2.43
2019-04-22T00:50:49.620Z,2.33
2019-04-22T00:53:40.193Z,2.50
2019-04-22T00:56:29.432Z,2.50
2019-04-22T00:59:25.123Z,2.53
2019-04-22T01:02:13.634Z,2.00
2019-04-22T01:05:07.413Z,2.53
2019-04-22T01:08:04.422Z,2.40
2019-04-22T01:10:52.185Z,2.30
2019-04-22T01:13:46.985Z,2.43
2019-04-22T01:16:42.923Z,2.70
2019-04-22T01:19:32.960Z,2.53
2019-04-22T01:22:23.723Z,2.63
2019-04-22T01:25:20.467Z,2.57
2019-04-22T01:28:10.967Z,2.50
2019-04-22T01:30:51.479Z,2.37
2019-04-22T01:33:45.802Z,2.40
2019-04-22T01:36:55.369Z,2.80
2019-04-22T01:40:00.171Z,2.57
2019-04-22T01:42:53.629Z,2.57
2019-04-22T01:45:39.490Z,2.47
2019-04-22T01:48:36.649Z,2.30
2019-04-22T01:51:45.518Z,2.53
2019-04-22T01:57:20.460Z,2.60
2019-04-22T02:00:06.403Z,2.50
2019-04-22T02:03:22.308Z,2.40
2019-04-22T02:06:07.500Z,2.30
2019-04-22T02:11:56.898Z,2.40
2019-04-22T02:14:44.339Z,2.50
2019-04-22T02:17:37.187Z,2.40
2019-04-22T02:20:31.357Z,2.60
2019-04-22T02:26:19.457Z,2.43
2019-04-22T02:29:17.159Z,2.53
2019-04-22T02:35:39.525Z,2.73
2019-04-22T02:38:21.499Z,2.67
2019-04-22T02:41:22.748Z,2.70
2019-04-22T02:47:01.207Z,2.50
2019-04-22T02:49:37.856Z,2.70
2019-04-22T02:52:31.104Z,2.37
2019-04-22T02:55:30.288Z,2.70
2019-04-22T02:58:12.575Z,3.07
2019-04-22T03:01:18.756Z,2.90
2019-04-22T03:04:09.344Z,2.70
2019-04-22T03:09:47.810Z,2.93
2019-04-22T03:12:35.336Z,3.13
2019-04-22T03:15:38.071Z,2.73
2019-04-22T03:18:41.981Z,2.67
2019-04-22T03:24:20.249Z,2.90
2019-04-22T03:27:00.720Z,2.80
2019-04-22T03:36:05.239Z,2.80
2019-04-22T03:44:46.717Z,2.83
2019-04-22T03:47:37.568Z,2.80
2019-04-22T03:50:25.644Z,2.70
2019-04-22T03:53:15.268Z,3.17
2019-04-22T03:59:09.891Z,3.30
2019-04-22T04:01:52.923Z,3.40
2019-04-22T04:04:43.312Z,2.80
2019-04-22T04:10:35.372Z,3.10
2019-04-22T04:13:30.392Z,2.40
2019-04-22T04:16:21.594Z,2.30
2019-04-22T04:22:19.573Z,2.53
2019-04-22T04:30:33.946Z,2.47
2019-04-22T04:36:35.581Z,2.73
2019-04-22T04:39:28.794Z,2.53
2019-04-22T04:48:18.521Z,2.67
2019-04-22T04:54:08.720Z,2.63
2019-04-22T04:56:46.668Z,2.60
2019-04-22T05:00:22.053Z,2.70
2019-04-22T05:08:31.352Z,3.10
2019-04-22T05:14:06.333Z,3.10
2019-04-22T05:16:54.739Z,3.00
2019-04-22T05:19:49.915Z,2.90
2019-04-22T05:22:35.997Z,3.40
2019-04-22T05:25:28.434Z,3.10
2019-04-22T05:28:15.183Z,3.10
2019-04-22T05:31:15.694Z,3.30
2019-04-22T05:34:04.333Z,3.40
2019-04-22T05:37:01.274Z,3.27
2019-04-22T05:40:14.048Z,3.40
2019-04-22T05:42:56.562Z,3.40
2019-04-22T05:45:47.350Z,3.47
2019-04-22T05:48:51.067Z,3.60
2019-04-22T05:51:37.100Z,3.80
2019-04-22T05:54:32.987Z,3.60
2019-04-22T06:00:25.630Z,3.60
2019-04-22T06:03:03.500Z,3.80
2019-04-22T06:06:05.519Z,3.60
2019-04-22T06:08:51.230Z,3.73
2019-04-22T06:11:42.807Z,3.53
2019-04-22T06:14:30.737Z,3.60
2019-04-22T06:17:37.838Z,3.80
2019-04-22T06:20:25.576Z,3.90
2019-04-22T06:23:19.066Z,3.77
2019-04-22T06:29:01.522Z,4.20
2019-04-22T06:32:11.640Z,3.90
2019-04-22T06:34:48.690Z,3.80
2019-04-22T06:38:09.728Z,4.33
2019-04-22T06:40:32.823Z,3.93
2019-04-22T06:43:30.120Z,4.00
2019-04-22T06:46:25.682Z,4.03
2019-04-22T06:49:17.082Z,4.50
2019-04-22T06:54:57.036Z,4.70
2019-04-22T06:57:53.331Z,4.17
2019-04-22T07:00:43.441Z,4.20
2019-04-22T07:03:42.810Z,4.33
2019-04-22T07:06:42.074Z,4.70
2019-04-22T07:12:20.138Z,4.53
2019-04-22T07:15:24.375Z,4.27
2019-04-22T07:18:06.160Z,4.20
2019-04-22T07:21:01.373Z,4.67
2019-04-22T07:23:51.353Z,4.80
2019-04-22T07:26:46.132Z,4.40
2019-04-22T07:29:33.797Z,4.50
2019-04-22T07:35:22.869Z,4.47
2019-04-22T07:38:17.660Z,4.33
2019-04-22T07:40:59.444Z,4.73
2019-04-22T07:44:22.089Z,4.53
2019-04-22T07:47:07.493Z,4.03
2019-04-22T07:49:52.640Z,4.47
2019-04-22T07:52:38.491Z,4.67
2019-04-22T07:55:38.142Z,4.57
2019-04-22T08:01:24.639Z,4.63
2019-04-22T08:04:22.916Z,4.30
2019-04-22T08:10:08.764Z,4.40
2019-04-22T08:12:57.679Z,4.63
2019-04-22T08:15:53.704Z,4.47
2019-04-22T08:18:51.078Z,4.73
2019-04-22T08:21:38.325Z,4.67
2019-04-22T08:24:42.214Z,4.67
2019-04-22T08:27:25.402Z,4.10
2019-04-22T08:30:24.598Z,4.60
2019-04-22T08:33:10.867Z,4.80
2019-04-22T08:41:41.509Z,4.43
2019-04-22T08:50:33.325Z,4.67
2019-04-22T08:53:37.611Z,4.30
2019-04-22T08:56:31.008Z,4.30
2019-04-22T09:02:15.649Z,4.60
2019-04-22T09:05:20.382Z,4.40
2019-04-22T09:08:05.901Z,4.23
2019-04-22T09:10:51.942Z,4.00
2019-04-22T09:13:45.243Z,4.87
2019-04-22T09:16:39.643Z,4.60
2019-04-22T09:19:23.841Z,4.37
2019-04-22T09:22:17.525Z,4.43
2019-04-22T09:25:26.891Z,4.10
2019-04-22T09:28:03.286Z,4.13
2019-04-22T09:30:57.198Z,4.33
2019-04-22T09:33:50.412Z,4.20
2019-04-22T09:36:42.126Z,4.20
2019-04-22T09:39:34.641Z,3.90
2019-04-22T09:45:21.726Z,4.10
2019-04-22T09:48:18.098Z,3.93
2019-04-22T09:51:12.028Z,3.90
2019-04-22T09:54:08.979Z,4.10
2019-04-22T09:57:09.485Z,4.27
2019-04-22T10:00:02.258Z,4.03
2019-04-22T10:03:00.914Z,4.30
2019-04-22T10:05:55.716Z,4.10
2019-04-22T10:08:43.572Z,4.00
2019-04-22T10:14:28.861Z,3.70
2019-04-22T10:17:11.275Z,3.70
2019-04-22T10:20:05.602Z,3.80
2019-04-22T10:22:57.446Z,3.70
2019-04-22T10:25:58.832Z,4.07
2019-04-22T10:28:45.049Z,3.90
2019-04-22T10:34:16.758Z,3.60
2019-04-22T10:37:06.037Z,3.77
2019-04-22T10:39:56.864Z,3.60
2019-04-22T10:42:53.623Z,3.80
2019-04-22T10:45:43.889Z,3.40
2019-04-22T10:48:38.231Z,3.67
2019-04-22T10:51:26.557Z,3.47
2019-04-22T10:54:29.400Z,3.40
2019-04-22T10:57:18.052Z,3.60
2019-04-22T11:00:15.832Z,3.70
2019-04-22T11:03:04.214Z,3.60
2019-04-22T11:05:59.299Z,3.60
2019-04-22T11:08:52.857Z,3.50
2019-04-22T11:11:52.101Z,3.70
2019-04-22T11:14:32.946Z,3.40
2019-04-22T11:17:26.556Z,3.40
2019-04-22T11:20:17.641Z,3.23
2019-04-22T11:23:14.489Z,3.40
2019-04-22T11:26:01.780Z,3.43
2019-04-22T11:28:57.581Z,2.97
2019-04-22T11:31:46.348Z,3.40
2019-04-22T11:34:41.023Z,3.20
2019-04-22T11:37:28.321Z,3.23
2019-04-22T11:40:29.399Z,2.90
2019-04-22T11:43:12.288Z,3.17
2019-04-22T11:46:07.319Z,3.27
2019-04-22T11:48:56.014Z,3.10
2019-04-22T11:51:51.874Z,2.80
2019-04-22T11:54:41.300Z,2.80
2019-04-22T11:57:43.068Z,2.67
2019-04-22T12:00:32.937Z,2.90
2019-04-22T12:03:28.569Z,3.00
2019-04-22T12:06:17.810Z,2.53
2019-04-22T12:09:15.445Z,2.50
2019-04-22T12:12:05.745Z,2.47
2019-04-22T12:15:00.772Z,2.73
2019-04-22T12:17:48.904Z,3.00
2019-04-22T12:20:43.353Z,2.40
2019-04-22T12:23:37.376Z,2.50
2019-04-22T12:26:32.548Z,2.70
2019-04-22T12:29:20.678Z,2.60
2019-04-22T12:32:15.858Z,2.77
2019-04-22T12:35:03.077Z,2.30
2019-04-22T12:38:03.345Z,2.40
2019-04-22T12:41:00.352Z,2.20
2019-04-22T12:43:53.312Z,2.43
2019-04-22T12:46:42.031Z,2.10
2019-04-22T12:49:40.168Z,2.47
2019-04-22T12:52:36.944Z,2.10
2019-04-22T12:55:22.142Z,2.23
2019-04-22T12:58:09.699Z,2.10
2019-04-22T13:01:12.811Z,2.10
2019-04-22T13:04:05.753Z,2.07
2019-04-22T13:06:57.604Z,2.20
2019-04-22T13:09:45.529Z,1.97
2019-04-22T13:12:39.336Z,1.73
2019-04-22T13:15:26.699Z,2.17
2019-04-22T13:18:31.004Z,2.10
2019-04-22T13:21:10.877Z,1.87
2019-04-22T13:24:07.074Z,2.10
2019-04-22T13:26:55.011Z,2.00
2019-04-22T13:29:51.018Z,1.97
2019-04-22T13:32:41.002Z,2.00
2019-04-22T13:35:36.112Z,2.00
2019-04-22T13:38:31.144Z,1.73
2019-04-22T13:41:33.930Z,1.60
2019-04-22T13:44:14.673Z,1.87
2019-04-22T13:47:19.796Z,1.87
2019-04-22T13:53:41.992Z,1.80
2019-04-22T13:56:00.666Z,1.80
2019-04-22T13:58:52.869Z,1.97
2019-04-22T14:01:46.245Z,1.80
2019-04-22T14:04:50.530Z,1.70
2019-04-22T14:07:38.870Z,2.00
2019-04-22T14:10:34.440Z,1.80
2019-04-22T14:13:22.070Z,1.73
2019-04-22T14:16:17.097Z,1.90
2019-04-22T14:19:07.849Z,1.40
2019-04-22T14:22:03.987Z,1.77
2019-04-22T14:24:52.400Z,1.87
2019-04-22T14:27:56.785Z,1.83
2019-04-22T14:30:37.196Z,1.90
2019-04-22T14:33:33.841Z,1.63
2019-04-22T14:36:21.483Z,2.00
2019-04-22T14:39:15.888Z,1.70
2019-04-22T14:42:29.728Z,1.60
2019-04-22T14:45:30.368Z,1.80
2019-04-22T14:48:22.787Z,1.80
2019-04-22T14:51:11.654Z,1.60
2019-04-22T14:54:03.046Z,2.00
2019-04-22T14:56:40.528Z,1.53
2019-04-22T14:59:29.094Z,1.70
2019-04-22T15:02:23.848Z,1.80
2019-04-22T15:05:12.230Z,1.80
2019-04-22T15:08:15.048Z,1.80
2019-04-22T15:11:04.501Z,1.70
2019-04-22T15:14:01.193Z,1.63
2019-04-22T15:17:06.763Z,1.50
2019-04-22T15:20:03.704Z,1.70
2019-04-22T15:22:50.911Z,1.80
2019-04-22T15:25:46.338Z,1.50
2019-04-22T15:28:35.438Z,1.63
2019-04-22T15:31:31.226Z,1.57
2019-04-22T15:34:18.698Z,1.53
2019-04-22T15:37:13.838Z,1.60
2019-04-22T15:40:02.705Z,1.73
2019-04-22T15:42:56.979Z,1.80
2019-04-22T15:45:44.442Z,1.50
2019-04-22T15:48:38.084Z,1.70
2019-04-22T15:51:26.717Z,1.30
2019-04-22T15:54:21.545Z,1.57
2019-04-22T15:57:10.703Z,1.70
2019-04-22T16:00:19.670Z,1.70
2019-04-22T16:02:55.237Z,1.57
2019-04-22T16:05:55.957Z,1.47
2019-04-22T16:08:43.973Z,1.50
2019-04-22T16:11:45.796Z,1.40
2019-04-22T16:14:43.843Z,1.43
2019-04-22T16:17:34.835Z,1.53
2019-04-22T16:20:30.080Z,1.60
2019-04-22T16:23:42.375Z,1.53
2019-04-22T16:26:40.201Z,1.27
2019-04-22T16:29:34.772Z,1.33
2019-04-22T16:32:23.363Z,1.43
2019-04-22T16:35:18.739Z,1.70
2019-04-22T16:38:10.856Z,1.53
2019-04-22T16:41:06.594Z,1.73
2019-04-22T16:43:54.475Z,1.30
2019-04-22T16:46:51.789Z,1.40
2019-04-22T16:49:39.507Z,1.50
2019-04-22T16:52:39.860Z,1.30
2019-04-22T16:55:28.318Z,1.40
2019-04-22T16:58:23.222Z,1.60
2019-04-22T17:01:12.548Z,1.50
2019-04-22T17:04:10.600Z,1.30
2019-04-22T17:06:57.762Z,1.47
2019-04-22T17:09:59.773Z,1.30
2019-04-22T17:13:02.157Z,1.23
2019-04-22T17:15:49.664Z,1.27
2019-04-22T17:18:37.205Z,1.40
2019-04-22T17:21:31.848Z,1.37
2019-04-22T17:24:19.499Z,1.47
2019-04-22T17:27:14.719Z,1.60
2019-04-22T17:30:06.441Z,1.30
2019-04-22T17:33:01.051Z,1.43
2019-04-22T17:35:50.183Z,1.47
2019-04-22T17:38:54.350Z,1.20
2019-04-22T17:41:52.671Z,1.50
2019-04-22T17:44:57.148Z,1.30
2019-04-22T17:47:49.569Z,1.50
2019-04-22T17:51:07.587Z,1.40
2019-04-22T17:53:46.830Z,1.60
2019-04-22T17:56:40.018Z,1.57
2019-04-22T17:59:31.066Z,1.30
2019-04-22T18:02:19.234Z,1.50
2019-04-22T18:04:57.392Z,1.60
2019-04-22T18:08:10.094Z,1.20
2019-04-22T18:10:54.224Z,1.40
2019-04-22T18:14:01.773Z,1.50
2019-04-22T18:16:48.883Z,1.40
2019-04-22T18:20:10.490Z,1.53
2019-04-22T18:22:57.632Z,1.50
2019-04-22T18:26:00.397Z,1.37
2019-04-22T18:28:54.360Z,1.67
2019-04-22T18:31:40.617Z,1.43
2019-04-22T18:34:29.662Z,1.50
2019-04-22T18:37:25.178Z,1.33
2019-04-22T18:40:18.600Z,1.50
2019-04-22T18:43:17.123Z,1.50
2019-04-22T18:46:09.511Z,1.50
2019-04-22T18:49:00.652Z,1.67
2019-04-22T18:51:55.977Z,1.53
2019-04-22T18:55:08.623Z,1.50
2019-04-22T18:58:04.286Z,1.60
2019-04-22T19:00:48.237Z,1.30
2019-04-22T19:03:51.142Z,1.50
2019-04-22T19:06:56.471Z,1.50
2019-04-22T19:09:51.329Z,1.53
2019-04-22T19:12:41.842Z,1.50
2019-04-22T19:15:35.114Z,1.60
2019-04-22T19:18:34.779Z,1.40
2019-04-22T19:21:20.947Z,1.37
2019-04-22T19:24:17.322Z,1.60
2019-04-22T19:27:02.962Z,1.60
2019-04-22T19:30:05.661Z,1.40
2019-04-22T19:32:51.525Z,1.50
2019-04-22T19:35:40.184Z,1.40
2019-04-22T19:38:28.908Z,1.23
2019-04-22T19:41:37.418Z,1.40
2019-04-22T19:44:26.250Z,1.60
2019-04-22T19:47:33.692Z,1.43
2019-04-22T19:50:16.563Z,1.43
2019-04-22T19:53:13.194Z,1.70
2019-04-22T19:55:56.258Z,1.60
2019-04-22T19:58:49.202Z,1.60
2019-04-22T20:01:53.212Z,1.60
2019-04-22T20:05:06.062Z,1.40
2019-04-22T20:07:48.710Z,1.50
2019-04-22T20:10:47.252Z,1.63
2019-04-22T20:13:36.768Z,1.30
2019-04-22T20:16:27.216Z,1.20
2019-04-22T20:19:31.973Z,1.70
2019-04-22T20:22:17.528Z,1.50
2019-04-22T20:24:59.590Z,1.57
2019-04-22T20:28:11.101Z,1.77
2019-04-22T20:30:55.077Z,1.50
2019-04-22T20:33:56.090Z,1.53
2019-04-22T20:39:43.810Z,1.50
2019-04-22T20:45:30.691Z,1.57
2019-04-22T20:48:06.067Z,1.60
2019-04-22T20:51:43.770Z,1.77
2019-04-22T20:54:19.367Z,1.73
2019-04-22T20:57:15.416Z,1.53
2019-04-22T21:00:06.111Z,1.70
2019-04-22T21:03:20.967Z,1.27
2019-04-22T21:06:22.786Z,1.60
2019-04-22T21:09:31.744Z,1.63
2019-04-22T21:12:21.046Z,1.50
2019-04-22T21:15:39.594Z,1.40
2019-04-22T21:18:23.222Z,1.50
2019-04-22T21:21:31.981Z,1.43
2019-04-22T21:24:18.633Z,1.50
2019-04-22T21:27:42.460Z,1.40
2019-04-22T21:30:03.301Z,1.40
2019-04-22T21:33:16.234Z,1.47
2019-04-22T21:36:35.255Z,1.33
2019-04-22T21:39:29.296Z,1.43
2019-04-22T21:42:24.563Z,1.33
2019-04-22T21:45:20.844Z,1.33
2019-04-22T21:48:31.365Z,1.20
2019-04-22T21:51:34.864Z,1.30
2019-04-22T21:54:28.322Z,1.30
2019-04-22T21:57:57.700Z,1.27
2019-04-22T22:00:37.440Z,1.10
2019-04-22T22:03:38.390Z,1.10
2019-04-22T22:06:25.868Z,1.30
2019-04-22T22:09:45.947Z,1.30
2019-04-22T22:12:40.817Z,1.13
2019-04-22T22:15:56.271Z,1.23
2019-04-22T22:19:00.825Z,1.10
2019-04-22T22:22:15.184Z,1.40
2019-04-22T22:25:01.447Z,0.90
2019-04-22T22:28:07.781Z,1.10
2019-04-22T22:34:16.679Z,1.20
2019-04-22T22:36:53.044Z,1.20
2019-04-22T22:39:48.131Z,1.30
2019-04-22T22:42:53.486Z,0.93
2019-04-22T22:45:58.755Z,0.90
2019-04-22T22:48:58.164Z,0.77
2019-04-22T22:52:37.889Z,1.10
2019-04-22T22:55:10.743Z,1.17
2019-04-22T23:01:21.263Z,0.80
2019-04-22T23:07:20.820Z,0.90
2019-04-22T23:10:25.080Z,1.17
2019-04-22T23:19:22.083Z,1.10
2019-04-22T23:22:35.685Z,1.00
2019-04-22T23:25:50.017Z,0.90
2019-04-22T23:28:52.496Z,1.03
2019-04-22T23:31:44.262Z,0.97
2019-04-22T23:34:56.001Z,0.93
2019-04-22T23:37:49.980Z,1.00
2019-04-22T23:40:55.579Z,0.80
2019-04-22T23:43:56.249Z,0.93
2019-04-22T23:46:48.398Z,1.03
2019-04-22T23:49:43.183Z,1.10
2019-04-22T23:52:48.034Z,0.63
2019-04-22T23:55:37.032Z,1.10
